createdAt,value
2023-03-04T00:00:28.868Z,1.15
2023-03-04T00:02:55.916Z,1.13
2023-03-04T00:05:23.106Z,1.18
2023-03-04T00:07:50.293Z,1.15
2023-03-04T00:10:17.542Z,1.28
2023-03-04T00:12:44.566Z,1.31
2023-03-04T00:15:11.764Z,1.33
2023-03-04T00:17:38.825Z,1.29
2023-03-04T00:20:06.479Z,1.28
2023-03-04T00:22:33.835Z,1.24
2023-03-04T00:25:00.821Z,1.36
2023-03-04T00:27:27.886Z,1.37
2023-03-04T00:29:55.815Z,1.40
2023-03-04T00:32:23.250Z,1.38
2023-03-04T00:34:50.290Z,1.35
2023-03-04T00:37:17.456Z,1.37
2023-03-04T00:39:44.482Z,1.38
2023-03-04T00:42:11.526Z,1.44
2023-03-04T00:44:39.172Z,1.21
2023-03-04T00:47:06.299Z,1.35
2023-03-04T00:49:33.366Z,1.49
2023-03-04T00:52:00.418Z,1.47
2023-03-04T00:54:27.548Z,1.51
2023-03-04T00:56:54.630Z,1.50
2023-03-04T00:59:21.635Z,1.54
2023-03-04T01:01:48.673Z,1.59
2023-03-04T01:04:17.774Z,1.66
2023-03-04T01:06:44.810Z,1.66
2023-03-04T01:09:12.751Z,1.67
2023-03-04T01:11:39.777Z,1.67
2023-03-04T01:14:06.851Z,1.35
2023-03-04T01:16:34.475Z,1.70
2023-03-04T01:19:01.865Z,1.68
2023-03-04T01:21:28.941Z,1.74
2023-03-04T01:23:56.084Z,1.87
2023-03-04T01:26:23.139Z,1.67
2023-03-04T01:28:50.418Z,1.86
2023-03-04T01:31:17.556Z,1.98
2023-03-04T01:33:44.769Z,1.92
2023-03-04T01:36:11.822Z,1.92
2023-03-04T01:38:38.836Z,1.91
2023-03-04T01:41:07.426Z,1.88
2023-03-04T01:43:36.572Z,1.97
2023-03-04T01:46:04.658Z,1.94
2023-03-04T01:48:37.038Z,2.00
2023-03-04T01:51:06.170Z,1.83
2023-03-04T01:53:33.865Z,1.97
2023-03-04T01:56:10.756Z,1.98
2023-03-04T01:58:37.906Z,2.05
2023-03-04T02:01:04.956Z,1.86
2023-03-04T02:03:32.039Z,2.05
2023-03-04T02:05:59.120Z,1.93
2023-03-04T02:08:26.139Z,2.04
2023-03-04T02:10:54.085Z,2.03
2023-03-04T02:13:21.422Z,1.69
2023-03-04T02:15:48.650Z,2.01
2023-03-04T02:18:22.675Z,2.03
2023-03-04T02:21:02.113Z,1.96
2023-03-04T02:23:58.577Z,2.04
2023-03-04T02:26:31.049Z,1.90
2023-03-04T02:29:00.055Z,2.06
2023-03-04T02:31:34.942Z,2.05
2023-03-04T02:34:05.345Z,2.10
2023-03-04T02:36:33.023Z,2.12
2023-03-04T02:39:21.186Z,2.19
2023-03-04T02:41:52.089Z,2.19
2023-03-04T02:44:21.541Z,2.14
2023-03-04T02:46:49.852Z,2.22
2023-03-04T02:49:17.806Z,2.24
2023-03-04T02:51:44.921Z,2.59
2023-03-04T02:54:16.579Z,2.36
2023-03-04T02:56:52.417Z,2.33
2023-03-04T02:59:22.847Z,2.76
2023-03-04T03:01:51.155Z,2.53
2023-03-04T03:04:20.085Z,2.77
2023-03-04T03:06:47.324Z,2.49
2023-03-04T03:09:15.334Z,2.75
2023-03-04T03:11:42.544Z,2.71
2023-03-04T03:14:09.945Z,2.86
2023-03-04T03:16:37.086Z,2.88
2023-03-04T03:19:05.351Z,2.81
2023-03-04T03:21:34.152Z,2.47
2023-03-04T03:24:01.160Z,2.80
2023-03-04T03:26:29.282Z,2.81
2023-03-04T03:28:56.300Z,2.84
2023-03-04T03:31:23.420Z,2.74
2023-03-04T03:33:50.517Z,2.78
2023-03-04T03:36:17.642Z,2.87
2023-03-04T03:38:44.664Z,2.92
2023-03-04T03:41:11.664Z,2.87
2023-03-04T03:43:38.648Z,2.77
2023-03-04T03:46:05.873Z,2.75
2023-03-04T03:48:32.960Z,2.92
2023-03-04T03:50:59.974Z,2.97
2023-03-04T03:53:27.033Z,2.89
2023-03-04T03:55:54.061Z,3.01
2023-03-04T03:58:21.666Z,2.93
2023-03-04T04:00:48.745Z,3.02
2023-03-04T04:03:16.971Z,2.92
2023-03-04T04:05:44.119Z,2.51
2023-03-04T04:08:14.121Z,2.96
2023-03-04T04:10:41.704Z,2.92
2023-03-04T04:13:09.611Z,3.01
2023-03-04T04:15:38.643Z,2.92
2023-03-04T04:18:06.784Z,2.94
2023-03-04T04:20:34.352Z,2.91
2023-03-04T04:23:02.035Z,2.98
2023-03-04T04:25:29.481Z,3.03
2023-03-04T04:27:56.490Z,3.02
2023-03-04T04:30:23.587Z,3.02
2023-03-04T04:32:50.767Z,2.95
2023-03-04T04:35:18.032Z,3.22
2023-03-04T04:37:45.164Z,3.08
2023-03-04T04:40:12.930Z,3.09
2023-03-04T04:42:40.005Z,2.91
2023-03-04T04:45:07.903Z,3.20
2023-03-04T04:47:34.910Z,2.62
2023-03-04T04:50:02.197Z,3.19
2023-03-04T04:52:29.347Z,3.11
2023-03-04T04:54:56.418Z,3.13
2023-03-04T04:57:23.516Z,3.20
2023-03-04T04:59:50.534Z,2.94
2023-03-04T05:02:17.615Z,3.18
2023-03-04T05:04:44.611Z,3.12
2023-03-04T05:07:11.650Z,3.12
2023-03-04T05:09:38.721Z,3.06
2023-03-04T05:12:05.913Z,3.09
2023-03-04T05:14:32.996Z,2.99
2023-03-04T05:17:04.304Z,3.05
2023-03-04T05:19:31.348Z,2.99
2023-03-04T05:22:54.385Z,3.14
2023-03-04T05:25:21.633Z,2.60
2023-03-04T05:27:48.672Z,2.94
2023-03-04T05:30:15.716Z,3.17
2023-03-04T05:32:42.860Z,3.14
2023-03-04T05:35:09.920Z,2.77
2023-03-04T05:37:36.948Z,3.08
2023-03-04T05:40:05.165Z,3.13
2023-03-04T05:42:32.177Z,3.17
2023-03-04T05:44:59.178Z,3.15
2023-03-04T05:47:26.207Z,3.22
2023-03-04T05:49:54.422Z,3.13
2023-03-04T05:52:21.524Z,3.30
2023-03-04T05:54:48.518Z,3.19
2023-03-04T05:57:15.574Z,3.20
2023-03-04T05:59:42.629Z,3.25
2023-03-04T06:02:09.650Z,3.11
2023-03-04T06:04:36.726Z,3.25
2023-03-04T06:07:03.777Z,3.28
2023-03-04T06:09:30.762Z,3.34
2023-03-04T06:11:57.770Z,3.24
2023-03-04T06:14:24.877Z,3.21
2023-03-04T06:16:52.220Z,3.27
2023-03-04T06:19:19.367Z,3.24
2023-03-04T06:21:46.466Z,3.30
2023-03-04T06:24:13.714Z,3.29
2023-03-04T06:26:40.796Z,3.38
2023-03-04T06:29:07.822Z,2.97
2023-03-04T06:31:34.930Z,3.31
2023-03-04T06:34:02.009Z,3.24
2023-03-04T06:36:29.038Z,3.40
2023-03-04T06:38:56.097Z,3.33
2023-03-04T06:41:23.088Z,3.42
2023-03-04T06:43:50.081Z,3.44
2023-03-04T06:46:17.123Z,3.49
2023-03-04T06:48:44.116Z,3.22
2023-03-04T06:51:13.857Z,3.53
2023-03-04T06:53:41.797Z,3.58
2023-03-04T06:56:10.718Z,3.43
2023-03-04T06:58:37.970Z,3.44
2023-03-04T07:01:16.641Z,3.51
2023-03-04T07:03:44.565Z,3.44
2023-03-04T07:06:13.060Z,3.41
2023-03-04T07:08:40.360Z,3.53
2023-03-04T07:11:08.222Z,3.64
2023-03-04T07:13:38.211Z,3.57
2023-03-04T07:16:10.290Z,3.56
2023-03-04T07:18:38.009Z,3.59
2023-03-04T07:21:06.685Z,3.41
2023-03-04T07:23:35.149Z,3.56
2023-03-04T07:26:03.317Z,3.57
2023-03-04T07:28:30.451Z,3.41
2023-03-04T07:30:57.615Z,3.70
2023-03-04T07:33:24.631Z,3.80
2023-03-04T07:35:59.753Z,3.83
2023-03-04T07:38:26.808Z,3.81
2023-03-04T07:40:58.291Z,3.86
2023-03-04T07:43:25.552Z,3.86
2023-03-04T07:45:52.604Z,3.90
2023-03-04T07:48:19.602Z,3.89
2023-03-04T07:50:46.656Z,3.44
2023-03-04T07:53:13.641Z,3.85
2023-03-04T07:55:40.645Z,3.81
2023-03-04T07:58:07.615Z,3.89
2023-03-04T08:00:34.665Z,3.93
2023-03-04T08:03:01.662Z,3.84
2023-03-04T08:05:28.690Z,4.01
2023-03-04T08:07:57.895Z,4.00
2023-03-04T08:10:24.943Z,4.07
2023-03-04T08:12:52.029Z,4.11
2023-03-04T08:15:19.030Z,4.01
2023-03-04T08:17:46.008Z,3.72
2023-03-04T08:20:13.159Z,4.06
2023-03-04T08:22:40.237Z,4.06
2023-03-04T08:25:07.552Z,4.33
2023-03-04T08:27:34.757Z,4.29
2023-03-04T08:30:01.746Z,4.53
2023-03-04T08:32:28.971Z,4.51
2023-03-04T08:34:56.891Z,4.32
2023-03-04T08:37:24.021Z,4.60
2023-03-04T08:39:51.128Z,4.46
2023-03-04T08:42:18.151Z,4.58
2023-03-04T08:44:45.141Z,4.40
2023-03-04T08:47:12.424Z,4.50
2023-03-04T08:49:39.441Z,4.56
2023-03-04T08:52:06.715Z,4.49
2023-03-04T08:54:33.848Z,4.67
2023-03-04T08:57:00.860Z,4.75
2023-03-04T08:59:27.845Z,4.65
2023-03-04T09:01:54.861Z,4.59
2023-03-04T09:04:21.960Z,4.71
2023-03-04T09:06:53.897Z,4.67
2023-03-04T09:09:21.099Z,4.64
2023-03-04T09:11:48.189Z,4.63
2023-03-04T09:14:15.220Z,4.79
2023-03-04T09:16:42.226Z,4.77
2023-03-04T09:19:09.372Z,4.67
2023-03-04T09:21:36.658Z,4.71
2023-03-04T09:24:03.839Z,4.42
2023-03-04T09:26:30.911Z,4.81
2023-03-04T09:29:00.504Z,4.98
2023-03-04T09:31:28.581Z,4.74
2023-03-04T09:33:57.840Z,5.09
2023-03-04T09:36:24.900Z,5.34
2023-03-04T09:38:51.933Z,5.49
2023-03-04T09:41:24.178Z,5.51
2023-03-04T09:43:54.244Z,5.64
2023-03-04T09:46:38.720Z,5.83
2023-03-04T09:49:07.537Z,5.81
2023-03-04T09:51:56.790Z,6.05
2023-03-04T09:54:37.357Z,6.11
2023-03-04T09:57:42.161Z,5.95
2023-03-04T10:00:25.906Z,6.05
2023-03-04T10:03:19.500Z,6.31
2023-03-04T10:05:57.497Z,6.17
2023-03-04T10:08:49.566Z,6.48
2023-03-04T10:11:24.744Z,6.52
2023-03-04T10:14:00.247Z,6.40
2023-03-04T10:16:37.390Z,6.54
2023-03-04T10:19:29.210Z,6.64
2023-03-04T10:21:59.612Z,6.58
2023-03-04T10:24:29.251Z,6.79
2023-03-04T10:27:02.559Z,6.91
2023-03-04T10:29:32.623Z,6.95
2023-03-04T10:31:59.899Z,6.68
2023-03-04T10:34:27.031Z,7.17
2023-03-04T10:37:01.259Z,7.26
2023-03-04T10:39:32.010Z,7.43
2023-03-04T10:42:05.062Z,7.62
2023-03-04T10:44:34.618Z,7.59
2023-03-04T10:47:01.801Z,7.38
2023-03-04T10:49:29.986Z,7.52
2023-03-04T10:52:23.648Z,7.56
2023-03-04T10:54:54.527Z,7.50
2023-03-04T10:57:29.050Z,7.38
2023-03-04T11:00:01.820Z,7.28
2023-03-04T11:02:30.850Z,7.23
2023-03-04T11:05:23.875Z,7.21
2023-03-04T11:08:00.493Z,7.39
2023-03-04T11:10:40.361Z,7.44
2023-03-04T11:13:17.363Z,7.47
2023-03-04T11:15:50.446Z,7.42
2023-03-04T11:18:24.112Z,7.13
2023-03-04T11:20:51.260Z,7.27
2023-03-04T11:23:39.691Z,6.96
2023-03-04T11:26:12.545Z,6.97
2023-03-04T11:28:53.629Z,7.02
2023-03-04T11:31:27.273Z,7.20
2023-03-04T11:34:02.939Z,7.14
2023-03-04T11:37:03.473Z,7.19
2023-03-04T11:39:47.474Z,7.00
2023-03-04T11:42:39.886Z,7.06
2023-03-04T11:45:29.561Z,7.07
2023-03-04T11:48:17.765Z,6.86
2023-03-04T11:50:53.261Z,7.00
2023-03-04T11:53:23.382Z,6.87
2023-03-04T11:56:11.390Z,6.78
2023-03-04T11:59:01.960Z,6.82
2023-03-04T12:01:43.543Z,6.54
2023-03-04T12:04:35.353Z,6.83
2023-03-04T12:07:50.480Z,6.91
2023-03-04T12:14:41.326Z,6.73
2023-03-04T12:18:17.378Z,6.92
2023-03-04T12:21:10.143Z,6.94
2023-03-04T12:24:06.552Z,6.94
2023-03-04T12:26:55.085Z,6.79
2023-03-04T12:29:39.556Z,6.35
2023-03-04T12:32:31.587Z,6.54
2023-03-04T12:35:27.851Z,6.32
2023-03-04T12:38:12.416Z,6.29
2023-03-04T12:40:58.197Z,6.29
2023-03-04T12:43:49.722Z,6.36
2023-03-04T12:46:27.538Z,6.54
2023-03-04T12:49:19.602Z,6.51
2023-03-04T12:52:02.848Z,6.49
2023-03-04T12:54:37.151Z,6.58
2023-03-04T12:57:12.178Z,6.64
2023-03-04T12:59:52.014Z,6.70
2023-03-04T13:02:35.854Z,6.57
2023-03-04T13:05:34.105Z,6.63
2023-03-04T13:08:22.566Z,6.60
2023-03-04T13:10:51.350Z,6.46
2023-03-04T13:13:40.179Z,6.51
2023-03-04T13:16:32.467Z,6.66
2023-03-04T13:18:59.676Z,6.65
2023-03-04T13:21:31.500Z,6.76
2023-03-04T13:24:21.652Z,6.83
2023-03-04T13:26:48.772Z,6.97
2023-03-04T13:29:18.791Z,6.97
2023-03-04T13:31:57.745Z,7.01
2023-03-04T13:34:53.916Z,7.12
2023-03-04T13:37:26.892Z,7.38
2023-03-04T13:40:27.346Z,7.33
2023-03-04T13:42:55.606Z,6.92
2023-03-04T13:45:36.667Z,7.00
2023-03-04T13:48:21.434Z,7.11
2023-03-04T13:50:50.546Z,7.05
2023-03-04T13:53:30.979Z,7.13
2023-03-04T13:56:10.061Z,7.11
2023-03-04T13:58:38.091Z,7.25
2023-03-04T14:01:06.882Z,7.10
2023-03-04T14:03:35.436Z,6.95
2023-03-04T14:06:29.315Z,6.82
2023-03-04T14:08:57.332Z,6.72
2023-03-04T14:11:33.975Z,6.74
2023-03-04T14:14:05.654Z,6.97
2023-03-04T14:16:39.838Z,7.02
2023-03-04T14:19:13.866Z,6.97
2023-03-04T14:21:45.118Z,7.08
2023-03-04T14:24:16.009Z,7.23
2023-03-04T14:26:43.225Z,7.28
2023-03-04T14:29:27.939Z,7.36
2023-03-04T14:31:56.079Z,7.20
2023-03-04T14:34:32.285Z,7.25
2023-03-04T14:37:00.159Z,7.14
2023-03-04T14:39:30.566Z,7.06
2023-03-04T14:42:02.021Z,7.02
2023-03-04T14:44:36.056Z,6.85
2023-03-04T14:47:26.538Z,6.74
2023-03-04T14:49:53.914Z,6.72
2023-03-04T14:52:35.189Z,6.58
2023-03-04T14:55:14.105Z,6.55
2023-03-04T14:57:43.266Z,6.35
2023-03-04T15:00:22.289Z,6.33
2023-03-04T15:02:55.744Z,5.87
2023-03-04T15:05:34.600Z,6.03
2023-03-04T15:08:05.202Z,6.23
2023-03-04T15:10:37.964Z,6.02
2023-03-04T15:13:07.721Z,5.96
2023-03-04T15:16:01.104Z,6.27
2023-03-04T15:18:30.156Z,6.39
2023-03-04T15:21:20.619Z,6.33
2023-03-04T15:23:47.693Z,6.33
2023-03-04T15:26:14.758Z,6.32
2023-03-04T15:28:42.882Z,6.24
2023-03-04T15:31:18.083Z,6.22
2023-03-04T15:33:45.980Z,6.20
2023-03-04T15:36:16.349Z,6.16
2023-03-04T15:38:52.625Z,5.78
2023-03-04T15:41:26.915Z,5.84
2023-03-04T15:43:54.580Z,6.03
2023-03-04T15:46:22.121Z,5.83
2023-03-04T15:48:49.388Z,5.54
2023-03-04T15:51:22.071Z,5.85
2023-03-04T15:53:51.887Z,5.77
2023-03-04T15:56:24.349Z,5.71
2023-03-04T15:58:56.617Z,5.85
2023-03-04T16:01:24.572Z,5.86
2023-03-04T16:03:53.522Z,6.21
2023-03-04T16:06:23.686Z,6.05
2023-03-04T16:08:52.071Z,6.02
2023-03-04T16:11:30.837Z,6.01
2023-03-04T16:13:58.096Z,5.69
2023-03-04T16:16:25.364Z,5.58
2023-03-04T16:18:52.558Z,5.85
2023-03-04T16:21:23.189Z,5.68
2023-03-04T16:23:52.414Z,5.84
2023-03-04T16:26:22.853Z,5.73
2023-03-04T16:28:51.051Z,5.48
2023-03-04T16:31:19.775Z,5.70
2023-03-04T16:33:47.185Z,5.42
2023-03-04T16:36:23.790Z,5.55
2023-03-04T16:38:52.205Z,5.77
2023-03-04T16:41:24.901Z,5.77
2023-03-04T16:43:51.896Z,5.75
2023-03-04T16:46:18.936Z,5.44
2023-03-04T16:48:47.683Z,5.74
2023-03-04T16:51:18.232Z,5.76
2023-03-04T16:53:49.209Z,5.60
2023-03-04T16:56:17.784Z,5.69
2023-03-04T16:58:45.982Z,5.63
2023-03-04T17:01:17.617Z,5.55
2023-03-04T17:03:44.975Z,5.76
2023-03-04T17:06:13.333Z,5.66
2023-03-04T17:08:40.636Z,5.50
2023-03-04T17:11:08.249Z,5.49
2023-03-04T17:17:42.588Z,5.49
2023-03-04T17:20:13.248Z,5.57
2023-03-04T17:22:40.394Z,5.49
2023-03-04T17:25:08.182Z,5.58
2023-03-04T17:27:35.800Z,5.38
2023-03-04T17:30:05.657Z,4.89
2023-03-04T17:32:33.178Z,5.52
2023-03-04T17:35:00.369Z,5.53
2023-03-04T17:37:27.474Z,5.54
2023-03-04T17:39:54.548Z,5.26
2023-03-04T17:42:21.704Z,5.67
2023-03-04T17:44:54.795Z,5.45
2023-03-04T17:47:22.549Z,5.56
2023-03-04T17:49:50.692Z,5.63
2023-03-04T17:52:18.994Z,5.68
2023-03-04T17:54:46.731Z,5.18
2023-03-04T17:57:14.191Z,5.53
2023-03-04T17:59:41.406Z,5.59
2023-03-04T18:02:14.245Z,5.47
2023-03-04T18:04:42.505Z,5.56
2023-03-04T18:07:09.542Z,5.48
2023-03-04T18:09:36.574Z,5.58
2023-03-04T18:12:06.876Z,5.54
2023-03-04T18:14:34.019Z,5.63
2023-03-04T18:17:01.059Z,5.51
2023-03-04T18:19:28.268Z,5.48
2023-03-04T18:21:55.947Z,5.36
2023-03-04T18:24:23.506Z,5.01
2023-03-04T18:26:50.620Z,5.47
2023-03-04T18:29:17.654Z,5.44
2023-03-04T18:31:44.821Z,5.56
2023-03-04T18:34:11.869Z,5.47
2023-03-04T18:36:39.306Z,5.43
2023-03-04T18:39:07.405Z,5.43
2023-03-04T18:41:34.875Z,5.38
2023-03-04T18:44:02.035Z,5.44
2023-03-04T18:46:38.216Z,5.47
2023-03-04T18:49:08.854Z,5.46
2023-03-04T18:51:36.327Z,5.41
2023-03-04T18:54:03.472Z,5.36
2023-03-04T18:56:38.106Z,5.53
2023-03-04T18:59:08.614Z,5.45
2023-03-04T19:01:36.796Z,5.45
2023-03-04T19:04:05.571Z,5.34
2023-03-04T19:06:34.077Z,5.36
2023-03-04T19:09:01.717Z,4.92
2023-03-04T19:11:29.882Z,5.45
2023-03-04T19:13:57.158Z,5.30
2023-03-04T19:20:40.576Z,5.23
2023-03-04T19:33:49.576Z,5.36
2023-03-04T19:36:16.604Z,5.22
2023-03-04T19:38:43.981Z,5.24
2023-03-04T19:41:16.066Z,5.30
2023-03-04T19:43:43.243Z,5.35
2023-03-04T19:46:10.726Z,5.28
2023-03-04T19:48:39.492Z,5.40
2023-03-04T19:51:35.969Z,5.27
2023-03-04T19:54:03.402Z,5.07
2023-03-04T19:56:30.538Z,4.99
2023-03-04T19:58:57.751Z,5.14
2023-03-04T20:01:28.221Z,5.15
2023-03-04T20:03:57.786Z,5.11
2023-03-04T20:06:26.966Z,5.09
2023-03-04T20:08:59.871Z,5.23
2023-03-04T20:11:28.189Z,5.23
2023-03-04T20:13:58.213Z,5.23
2023-03-04T20:16:25.914Z,5.19
2023-03-04T20:18:53.306Z,5.06
2023-03-04T20:21:20.658Z,5.05
2023-03-04T20:23:47.717Z,5.11
2023-03-04T20:26:14.834Z,5.27
2023-03-04T20:28:51.111Z,5.27
2023-03-04T20:31:27.114Z,5.21
2023-03-04T20:33:55.883Z,4.86
2023-03-04T20:36:25.912Z,5.07
2023-03-04T20:39:02.107Z,4.92
2023-03-04T20:41:30.854Z,5.06
2023-03-04T20:43:58.196Z,4.79
2023-03-04T20:46:42.965Z,5.00
2023-03-04T20:49:16.428Z,4.91
2023-03-04T20:51:43.687Z,4.78
2023-03-04T20:54:11.235Z,4.97
2023-03-04T20:56:39.014Z,4.92
2023-03-04T20:59:08.886Z,4.84
2023-03-04T21:01:39.302Z,4.66
2023-03-04T21:04:07.093Z,4.70
2023-03-04T21:06:34.355Z,4.84
2023-03-04T21:09:04.213Z,4.42
2023-03-04T21:11:31.595Z,4.70
2023-03-04T21:13:58.777Z,4.72
2023-03-04T21:16:29.952Z,4.74
2023-03-04T21:18:57.112Z,4.78
2023-03-04T21:21:27.069Z,4.48
2023-03-04T21:23:55.866Z,4.60
2023-03-04T21:26:23.734Z,4.84
2023-03-04T21:32:57.671Z,4.67
2023-03-04T21:35:24.828Z,4.26
2023-03-04T21:37:51.984Z,4.69
2023-03-04T21:40:19.150Z,4.82
2023-03-04T21:42:46.557Z,4.76
2023-03-04T21:45:13.619Z,4.70
2023-03-04T21:47:40.634Z,4.74
2023-03-04T21:50:08.338Z,4.74
2023-03-04T21:52:35.544Z,4.75
2023-03-04T21:55:02.595Z,4.57
2023-03-04T21:57:29.648Z,4.73
2023-03-04T21:59:56.788Z,4.67
2023-03-04T22:02:24.128Z,4.51
2023-03-04T22:04:51.264Z,4.57
2023-03-04T22:07:18.278Z,4.58
2023-03-04T22:09:45.573Z,4.56
2023-03-04T22:12:14.316Z,4.62
2023-03-04T22:14:41.492Z,4.46
2023-03-04T22:17:08.581Z,4.31
2023-03-04T22:19:35.709Z,4.55
2023-03-04T22:22:02.771Z,4.59
2023-03-04T22:24:29.760Z,4.64
2023-03-04T22:26:57.580Z,4.63
2023-03-04T22:29:24.601Z,4.53
2023-03-04T22:31:51.772Z,4.50
2023-03-04T22:34:18.895Z,4.41
2023-03-04T22:36:47.288Z,4.57
2023-03-04T22:39:16.794Z,4.50
2023-03-04T22:41:44.354Z,4.46
2023-03-04T22:44:11.392Z,4.30
2023-03-04T22:46:39.132Z,4.24
2023-03-04T22:49:09.837Z,4.57
2023-03-04T22:51:38.205Z,4.62
2023-03-04T22:54:05.284Z,4.56
2023-03-04T22:56:32.887Z,4.62
2023-03-04T22:58:59.975Z,4.53
2023-03-04T23:01:27.047Z,4.19
2023-03-04T23:03:54.152Z,4.51
2023-03-04T23:06:25.159Z,4.59
2023-03-04T23:08:52.568Z,4.27
2023-03-04T23:11:23.357Z,4.64
2023-03-04T23:13:50.735Z,4.31
2023-03-04T23:16:19.075Z,4.58
2023-03-04T23:18:47.587Z,4.38
2023-03-04T23:21:20.863Z,4.57
2023-03-04T23:23:48.407Z,4.52
2023-03-04T23:26:18.691Z,4.61
2023-03-04T23:28:46.134Z,4.50
2023-03-04T23:31:16.680Z,4.50
2023-03-04T23:33:44.572Z,4.45
2023-03-04T23:36:15.216Z,4.46
2023-03-04T23:38:44.710Z,4.36
2023-03-04T23:41:14.340Z,4.28
2023-03-04T23:43:41.372Z,4.19
2023-03-04T23:46:11.751Z,4.19
2023-03-04T23:48:40.179Z,4.17
2023-03-04T23:51:09.497Z,4.30
2023-03-04T23:53:38.894Z,4.36
2023-03-04T23:56:17.600Z,4.19
2023-03-04T23:58:44.749Z,4.16
